| time (UTC) | temp F | wind direction | speed MPH | gust MPH | rain 1hr in | rain 24hr in | rain mn in | humidity % | barometer mb |
| 20260508173734 | 68 | 185 | 6.0 | 9.0 | 0.00 | 0.00 | 0.00 | 36 | 1015.8 |
| 20260508173230 | 68 | 166 | 5.0 | 7.0 | 0.00 | 0.00 | 0.00 | 35 | 1015.8 |
| 20260508172727 | 69 | 193 | 2.0 | 6.0 | 0.00 | 0.00 | 0.00 | 35 | 1016.1 |
| 20260508172224 | 69 | 235 | 9.0 | 13.0 | 0.00 | 0.00 | 0.00 | 35 | 1016.1 |
| 20260508171720 | 68 | 235 | 8.0 | 13.0 | 0.00 | 0.00 | 0.00 | 37 | 1016.1 |
| 20260508171216 | 68 | 225 | 4.0 | 9.0 | 0.00 | 0.00 | 0.00 | 36 | 1016.5 |
| 20260508170714 | 68 | 243 | 8.0 | 12.0 | 0.00 | 0.00 | 0.00 | 35 | 1016.1 |
| 20260508170212 | 68 | 226 | 6.0 | 9.0 | 0.00 | 0.00 | 0.00 | 35 | 1016.1 |
| 20260508165708 | 68 | 164 | 5.0 | 9.0 | 0.00 | 0.00 | 0.00 | 36 | 1016.5 |
| 20260508165206 | 68 | 158 | 6.0 | 11.0 | 0.00 | 0.00 | 0.00 | 37 | 1016.5 |
| 20260508164702 | 68 | 160 | 6.0 | 9.0 | 0.00 | 0.00 | 0.00 | 38 | 1016.5 |
| 20260508164158 | 68 | 166 | 6.0 | 12.0 | 0.00 | 0.00 | 0.00 | 38 | 1016.5 |
| 20260508163656 | 67 | 280 | 6.0 | 9.0 | 0.00 | 0.00 | 0.00 | 37 | 1016.8 |
| 20260508163153 | 67 | 227 | 6.0 | 7.0 | 0.00 | 0.00 | 0.00 | 39 | 1016.8 |
| 20260508162649 | 68 | 96 | 4.0 | 6.0 | 0.00 | 0.00 | 0.00 | 37 | 1017.2 |
| 20260508162146 | 68 | 115 | 3.0 | 4.0 | 0.00 | 0.00 | 0.00 | 37 | 1017.2 |
| 20260508161643 | 67 | 184 | 3.0 | 6.0 | 0.00 | 0.00 | 0.00 | 39 | 1017.2 |
| 20260508161141 | 67 | 103 | 4.0 | 6.0 | 0.00 | 0.00 | 0.00 | 43 | 1017.2 |
| 20260508160639 | 66 | 121 | 3.0 | 5.0 | 0.00 | 0.00 | 0.00 | 41 | 1017.5 |
| 20260508160136 | 66 | 93 | 6.0 | 8.0 | 0.00 | 0.00 | 0.00 | 42 | 1017.5 |
| 20260508155634 | 66 | 210 | 1.0 | 4.0 | 0.00 | 0.00 | 0.00 | 44 | 1017.5 |
| 20260508155130 | 66 | 111 | 4.0 | 7.0 | 0.00 | 0.00 | 0.00 | 44 | 1017.5 |
| 20260508154627 | 65 | 79 | 3.0 | 5.0 | 0.00 | 0.00 | 0.00 | 45 | 1017.8 |
| 20260508154123 | 64 | 148 | 2.0 | 4.0 | 0.00 | 0.00 | 0.00 | 42 | 1017.5 |
| 20260508153620 | 65 | 124 | 6.0 | 8.0 | 0.00 | 0.00 | 0.00 | 42 | 1017.5 |
| 20260508153117 | 64 | 91 | 3.0 | 4.0 | 0.00 | 0.00 | 0.00 | 43 | 1017.5 |
| 20260508152614 | 64 | 182 | 3.0 | 6.0 | 0.00 | 0.00 | 0.00 | 44 | 1017.5 |
| 20260508152109 | 64 | 148 | 2.0 | 4.0 | 0.00 | 0.00 | 0.00 | 43 | 1017.8 |
| 20260508151607 | 64 | 157 | 5.0 | 7.0 | 0.00 | 0.00 | 0.00 | 47 | 1017.8 |
| 20260508151103 | 63 | 177 | 3.0 | 6.0 | 0.00 | 0.00 | 0.00 | 46 | 1017.8 |
| 20260508150601 | 63 | 183 | 3.0 | 4.0 | 0.00 | 0.00 | 0.00 | 47 | 1017.8 |
| 20260508150056 | 63 | 117 | 4.0 | 7.0 | 0.00 | 0.00 | 0.00 | 49 | 1017.8 |
| 20260508145553 | 63 | 119 | 4.0 | 7.0 | 0.00 | 0.00 | 0.00 | 49 | 1017.8 |
| 20260508145049 | 62 | 212 | 4.0 | 6.0 | 0.00 | 0.00 | 0.00 | 47 | 1017.8 |
| 20260508144547 | 62 | 246 | 1.0 | 3.0 | 0.00 | 0.00 | 0.00 | 52 | 1017.8 |
| 20260508144044 | 61 | 193 | 1.0 | 4.0 | 0.00 | 0.00 | 0.00 | 51 | 1017.8 |
| 20260508143542 | 61 | 182 | 2.0 | 6.0 | 0.00 | 0.00 | 0.00 | 54 | 1018.2 |
| 20260508143038 | 60 | 130 | 3.0 | 6.0 | 0.00 | 0.00 | 0.00 | 55 | 1017.8 |
| 20260508142535 | 60 | 173 | 3.0 | 6.0 | 0.00 | 0.00 | 0.00 | 55 | 1018.2 |
| 20260508142032 | 60 | 198 | 4.0 | 6.0 | 0.00 | 0.00 | 0.00 | 56 | 1018.2 |
| 20260508141528 | 59 | 198 | 2.0 | 4.0 | 0.00 | 0.00 | 0.00 | 55 | 1018.2 |
| 20260508141026 | 59 | 201 | 3.0 | 5.0 | 0.00 | 0.00 | 0.00 | 52 | 1018.2 |
| 20260508140523 | 59 | 238 | 2.0 | 5.0 | 0.00 | 0.00 | 0.00 | 56 | 1018.2 |
| 20260508140019 | 59 | 136 | 2.0 | 3.0 | 0.00 | 0.00 | 0.00 | 57 | 1018.2 |
| 20260508135515 | 58 | 136 | 1.0 | 3.0 | 0.00 | 0.00 | 0.00 | 58 | 1018.2 |
| 20260508135006 | 58 | 146 | 3.0 | 4.0 | 0.00 | 0.00 | 0.00 | 59 | 1018.2 |
| 20260508134503 | 57 | 119 | 2.0 | 5.0 | 0.00 | 0.00 | 0.00 | 59 | 1018.2 |
| 20260508134000 | 57 | 119 | 3.0 | 4.0 | 0.00 | 0.00 | 0.00 | 58 | 1018.2 |
| 20260508133457 | 57 | 236 | 2.0 | 4.0 | 0.00 | 0.00 | 0.00 | 56 | 1018.2 |
| 20260508132953 | 57 | 236 | 2.0 | 4.0 | 0.00 | 0.00 | 0.00 | 59 | 1018.2 |
| 20260508132452 | 57 | 236 | 0.0 | 0.0 | 0.00 | 0.00 | 0.00 | 59 | 1018.2 |
| 20260508131948 | 57 | 278 | 0.0 | 0.0 | 0.00 | 0.00 | 0.00 | 64 | 1018.2 |
| 20260508131444 | 57 | 278 | 1.0 | 2.0 | 0.00 | 0.00 | 0.00 | 63 | 1018.2 |
| 20260508130941 | 56 | 278 | 0.0 | 0.0 | 0.00 | 0.00 | 0.00 | 60 | 1018.2 |
| 20260508130438 | 56 | 278 | 0.0 | 0.0 | 0.00 | 0.00 | 0.00 | 64 | 1018.5 |
| 20260508125933 | 55 | 278 | 0.0 | 0.0 | 0.00 | 0.00 | 0.00 | 63 | 1018.5 |
| 20260508125429 | 55 | 278 | 0.0 | 0.0 | 0.00 | 0.00 | 0.00 | 67 | 1018.5 |
| 20260508124927 | 55 | 278 | 0.0 | 0.0 | 0.00 | 0.00 | 0.00 | 67 | 1018.5 |
| 20260508124425 | 54 | 278 | 0.0 | 0.0 | 0.00 | 0.00 | 0.00 | 70 | 1018.2 |
| 20260508123923 | 54 | 278 | 0.0 | 0.0 | 0.00 | 0.00 | 0.00 | 70 | 1018.2 |
| 20260508123421 | 53 | 278 | 0.0 | 0.0 | 0.00 | 0.00 | 0.00 | 73 | 1018.2 |
| 20260508122917 | 53 | 278 | 0.0 | 0.0 | 0.00 | 0.00 | 0.00 | 74 | 1018.2 |
| 20260508122415 | 52 | 278 | 0.0 | 0.0 | 0.00 | 0.00 | 0.00 | 76 | 1018.2 |
| 20260508121912 | 52 | 278 | 0.0 | 0.0 | 0.00 | 0.00 | 0.00 | 80 | 1018.2 |
| 20260508121410 | 51 | 278 | 0.0 | 0.0 | 0.00 | 0.00 | 0.00 | 85 | 1018.2 |
| 20260508120907 | 50 | 278 | 0.0 | 0.0 | 0.00 | 0.00 | 0.00 | 87 | 1018.2 |
| 20260508120404 | 48 | 278 | 0.0 | 0.0 | 0.00 | 0.00 | 0.00 | 85 | 1018.2 |
| 20260508115902 | 47 | 278 | 0.0 | 0.0 | 0.00 | 0.00 | 0.00 | 89 | 1017.8 |
| 20260508115400 | 46 | 278 | 0.0 | 0.0 | 0.00 | 0.00 | 0.00 | 91 | 1017.8 |
| 20260508114856 | 46 | 278 | 0.0 | 0.0 | 0.00 | 0.00 | 0.00 | 92 | 1017.8 |
| 20260508114353 | 45 | 278 | 0.0 | 0.0 | 0.00 | 0.00 | 0.00 | 92 | 1017.8 |
| 20260508113849 | 45 | 278 | 0.0 | 0.0 | 0.00 | 0.00 | 0.00 | 93 | 1017.5 |
| 20260508113348 | 44 | 278 | 0.0 | 0.0 | 0.00 | 0.00 | 0.00 | 93 | 1017.5 |
| 20260508112844 | 43 | 278 | 0.0 | 0.0 | 0.00 | 0.00 | 0.00 | 95 | 1017.2 |
| 20260508112341 | 42 | 278 | 0.0 | 0.0 | 0.00 | 0.00 | 0.00 | 97 | 1017.2 |
| 20260508111838 | 41 | 278 | 0.0 | 0.0 | 0.00 | 0.00 | 0.00 | 98 | 1017.2 |
| 20260508111334 | 41 | 278 | 1.0 | 4.0 | 0.00 | 0.00 | 0.00 | 98 | 1017.2 |
| 20260508110832 | 40 | 278 | 0.0 | 0.0 | 0.00 | 0.00 | 0.00 | 97 | 1016.8 |
| 20260508110330 | 40 | 278 | 0.0 | 0.0 | 0.00 | 0.00 | 0.00 | 98 | 1016.8 |
| 20260508105829 | 40 | 278 | 0.0 | 3.0 | 0.00 | 0.00 | 0.00 | 98 | 1016.8 |
| 20260508105326 | 39 | 278 | 0.0 | 0.0 | 0.00 | 0.00 | 0.00 | 99 | 1016.8 |
| 20260508104823 | 39 | 278 | 0.0 | 0.0 | 0.00 | 0.00 | 0.00 | 99 | 1016.5 |
| 20260508104319 | 39 | 278 | 0.0 | 0.0 | 0.00 | 0.00 | 0.00 | 99 | 1016.5 |
| 20260508103817 | 38 | 278 | 0.0 | 0.0 | 0.00 | 0.00 | 0.00 | 99 | 1016.5 |
| 20260508103313 | 37 | 278 | 0.0 | 0.0 | 0.00 | 0.00 | 0.00 | 99 | 1016.5 |
| 20260508102811 | 37 | 278 | 0.0 | 2.0 | 0.00 | 0.00 | 0.00 | 99 | 1016.5 |
| 20260508102309 | 38 | 278 | 0.0 | 0.0 | 0.00 | 0.00 | 0.00 | 99 | 1016.1 |
| 20260508101806 | 37 | 278 | 0.0 | 2.0 | 0.00 | 0.00 | 0.00 | 99 | 1016.1 |
| 20260508101303 | 37 | 278 | 1.0 | 4.0 | 0.00 | 0.00 | 0.00 | 98 | 1015.8 |
| 20260508100801 | 38 | 278 | 0.0 | 0.0 | 0.00 | 0.00 | 0.00 | 98 | 1015.8 |
| 20260508100259 | 38 | 222 | 0.0 | 0.0 | 0.00 | 0.00 | 0.00 | 97 | 1015.8 |
| 20260508095754 | 38 | 222 | 0.0 | 0.0 | 0.00 | 0.00 | 0.00 | 97 | 1015.8 |
| 20260508095252 | 39 | 222 | 0.0 | 0.0 | 0.00 | 0.00 | 0.00 | 97 | 1015.8 |
| 20260508094749 | 39 | 222 | 0.0 | 0.0 | 0.00 | 0.00 | 0.00 | 97 | 1015.8 |
| 20260508094246 | 39 | 295 | 5.0 | 8.0 | 0.00 | 0.00 | 0.00 | 98 | 1015.4 |
| 20260508093743 | 39 | 352 | 0.0 | 3.0 | 0.00 | 0.00 | 0.00 | 98 | 1015.8 |
| 20260508093241 | 38 | 311 | 0.0 | 0.0 | 0.00 | 0.00 | 0.00 | 98 | 1015.4 |
| 20260508092737 | 38 | 311 | 0.0 | 4.0 | 0.00 | 0.00 | 0.00 | 98 | 1015.4 |
| 20260508092236 | 38 | 311 | 2.0 | 4.0 | 0.00 | 0.00 | 0.00 | 97 | 1015.4 |
| 20260508091733 | 38 | 311 | 0.0 | 0.0 | 0.00 | 0.00 | 0.00 | 97 | 1015.4 |
| 20260508091230 | 39 | 311 | 0.0 | 0.0 | 0.00 | 0.00 | 0.00 | 97 | 1015.4 |
| 20260508090728 | 40 | 311 | 0.0 | 0.0 | 0.00 | 0.00 | 0.00 | 98 | 1015.4 |
| 20260508090226 | 39 | 311 | 0.0 | 0.0 | 0.00 | 0.00 | 0.00 | 98 | 1015.0 |
| 20260508085721 | 39 | 311 | 0.0 | 3.0 | 0.00 | 0.00 | 0.00 | 97 | 1015.0 |
| 20260508085219 | 39 | 311 | 0.0 | 0.0 | 0.00 | 0.00 | 0.00 | 96 | 1015.0 |
| 20260508084714 | 40 | 311 | 1.0 | 3.0 | 0.00 | 0.00 | 0.00 | 95 | 1015.0 |
| 20260508084212 | 40 | 311 | 0.0 | 0.0 | 0.00 | 0.00 | 0.00 | 95 | 1015.0 |
| 20260508083709 | 41 | 311 | 0.0 | 0.0 | 0.00 | 0.00 | 0.00 | 94 | 1015.4 |
| 20260508083207 | 41 | 311 | 0.0 | 0.0 | 0.00 | 0.00 | 0.00 | 93 | 1015.0 |
| 20260508082701 | 42 | 311 | 0.0 | 0.0 | 0.00 | 0.00 | 0.00 | 91 | 1015.0 |
| 20260508082159 | 43 | 311 | 0.0 | 0.0 | 0.00 | 0.00 | 0.00 | 88 | 1015.0 |
| 20260508081656 | 44 | 311 | 0.0 | 0.0 | 0.00 | 0.00 | 0.00 | 86 | 1015.0 |
| 20260508081153 | 45 | 311 | 3.0 | 4.0 | 0.00 | 0.00 | 0.00 | 82 | 1015.0 |
| 20260508080650 | 43 | 332 | 2.0 | 5.0 | 0.00 | 0.00 | 0.00 | 87 | 1014.7 |
| 20260508080148 | 43 | 343 | 5.0 | 6.0 | 0.00 | 0.00 | 0.00 | 88 | 1014.7 |
| 20260508075644 | 41 | 334 | 3.0 | 5.0 | 0.00 | 0.00 | 0.00 | 93 | 1014.7 |
| 20260508075141 | 41 | 312 | 4.0 | 6.0 | 0.00 | 0.00 | 0.00 | 95 | 1014.7 |
| 20260508074639 | 42 | 305 | 0.0 | 0.0 | 0.00 | 0.00 | 0.00 | 95 | 1014.7 |
| 20260508074136 | 41 | 305 | 0.0 | 0.0 | 0.00 | 0.00 | 0.00 | 94 | 1014.7 |
| 20260508073633 | 42 | 319 | 0.0 | 3.0 | 0.00 | 0.00 | 0.00 | 92 | 1014.3 |
| 20260508073131 | 41 | 319 | 2.0 | 4.0 | 0.00 | 0.00 | 0.00 | 93 | 1014.3 |
| 20260508072626 | 41 | 319 | 0.0 | 0.0 | 0.00 | 0.00 | 0.00 | 96 | 1014.3 |
| 20260508072124 | 41 | 315 | 0.0 | 0.0 | 0.00 | 0.00 | 0.00 | 97 | 1014.7 |
| 20260508071621 | 41 | 315 | 0.0 | 0.0 | 0.00 | 0.00 | 0.00 | 97 | 1014.3 |
| 20260508071119 | 41 | 315 | 0.0 | 0.0 | 0.00 | 0.00 | 0.00 | 98 | 1014.7 |
| 20260508070616 | 40 | 315 | 0.0 | 0.0 | 0.00 | 0.00 | 0.00 | 98 | 1014.7 |
| 20260508070116 | 41 | 315 | 0.0 | 0.0 | 0.00 | 0.00 | 0.00 | 98 | 1014.7 |
| 20260508065612 | 41 | 315 | 3.0 | 4.0 | 0.00 | 0.00 | 0.00 | 98 | 1014.7 |
| 20260508065110 | 42 | 320 | 5.0 | 6.0 | 0.00 | 0.00 | 0.00 | 97 | 1014.7 |
| 20260508064607 | 42 | 324 | 1.0 | 5.0 | 0.00 | 0.00 | 0.00 | 98 | 1014.7 |
| 20260508064105 | 41 | 311 | 6.0 | 8.0 | 0.00 | 0.00 | 0.00 | 96 | 1014.7 |
| 20260508063602 | 42 | 311 | 0.0 | 0.0 | 0.00 | 0.00 | 0.00 | 97 | 1014.7 |
| 20260508063100 | 41 | 311 | 0.0 | 0.0 | 0.00 | 0.00 | 0.00 | 98 | 1014.7 |
| 20260508062557 | 42 | 333 | 1.0 | 5.0 | 0.00 | 0.00 | 0.00 | 97 | 1014.7 |
| 20260508062054 | 42 | 334 | 0.0 | 0.0 | 0.00 | 0.00 | 0.00 | 98 | 1014.7 |
| 20260508061551 | 42 | 324 | 4.0 | 6.0 | 0.00 | 0.00 | 0.00 | 99 | 1014.3 |
| 20260508061048 | 42 | 298 | 0.0 | 3.0 | 0.00 | 0.00 | 0.00 | 98 | 1014.7 |
| 20260508060545 | 42 | 302 | 1.0 | 4.0 | 0.00 | 0.00 | 0.00 | 99 | 1014.3 |
| 20260508060043 | 43 | 302 | 1.0 | 4.0 | 0.00 | 0.00 | 0.00 | 99 | 1014.3 |
| 20260508055538 | 42 | 295 | 0.0 | 2.0 | 0.00 | 0.00 | 0.00 | 99 | 1014.3 |
| 20260508055035 | 42 | 295 | 0.0 | 0.0 | 0.00 | 0.00 | 0.00 | 100 | 1014.3 |
| 20260508054531 | 43 | 295 | 0.0 | 0.0 | 0.00 | 0.00 | 0.00 | 100 | 1014.3 |
| 20260508054029 | 42 | 295 | 0.0 | 0.0 | 0.00 | 0.00 | 0.00 | 100 | 1014.3 |
| 20260508053525 | 42 | 295 | 0.0 | 0.0 | 0.00 | 0.00 | 0.00 | 100 | 1014.3 |
| 20260508053024 | 43 | 295 | 0.0 | 0.0 | 0.00 | 0.00 | 0.00 | 100 | 1014.3 |
| 20260508052521 | 42 | 295 | 0.0 | 0.0 | 0.00 | 0.00 | 0.00 | 100 | 1014.3 |
| 20260508052017 | 42 | 295 | 1.0 | 4.0 | 0.00 | 0.00 | 0.00 | 100 | 1014.0 |
| 20260508051514 | 43 | 47 | 0.0 | 0.0 | 0.00 | 0.00 | 0.00 | 100 | 1014.0 |
| 20260508051009 | 43 | 47 | 0.0 | 0.0 | 0.00 | 0.00 | 0.00 | 100 | 1014.3 |
| 20260508050506 | 42 | 47 | 0.0 | 0.0 | 0.00 | 0.00 | 0.00 | 100 | 1014.3 |
| 20260508050003 | 41 | 301 | 0.0 | 0.0 | 0.00 | 0.00 | 0.00 | 100 | 1014.0 |
| 20260508045459 | 41 | 301 | 0.0 | 0.0 | 0.00 | 0.00 | 0.00 | 100 | 1014.0 |
| 20260508044957 | 41 | 301 | 0.0 | 0.0 | 0.00 | 0.00 | 0.00 | 99 | 1014.0 |
| 20260508044454 | 41 | 301 | 0.0 | 0.0 | 0.00 | 0.00 | 0.00 | 99 | 1014.3 |
| 20260508043949 | 42 | 301 | 0.0 | 0.0 | 0.00 | 0.00 | 0.00 | 100 | 1014.0 |
| 20260508043447 | 42 | 301 | 0.0 | 0.0 | 0.00 | 0.00 | 0.00 | 99 | 1014.0 |
| 20260508042943 | 42 | 301 | 0.0 | 0.0 | 0.00 | 0.00 | 0.00 | 99 | 1014.0 |
| 20260508042441 | 43 | 301 | 0.0 | 0.0 | 0.00 | 0.00 | 0.00 | 99 | 1014.0 |
| 20260508041937 | 43 | 301 | 0.0 | 0.0 | 0.00 | 0.00 | 0.00 | 100 | 1014.0 |
| 20260508041434 | 43 | 301 | 0.0 | 0.0 | 0.00 | 0.00 | 0.00 | 99 | 1014.0 |
| 20260508040931 | 44 | 301 | 0.0 | 2.0 | 0.00 | 0.00 | 0.00 | 99 | 1014.0 |
| 20260508040428 | 45 | 301 | 0.0 | 0.0 | 0.00 | 0.00 | 0.00 | 99 | 1014.0 |
| 20260508035926 | 45 | 301 | 0.0 | 0.0 | 0.00 | 0.12 | 0.12 | 99 | 1014.0 |
| 20260508035422 | 45 | 301 | 0.0 | 0.0 | 0.00 | 0.12 | 0.12 | 99 | 1013.7 |
| 20260508034919 | 44 | 301 | 0.0 | 0.0 | 0.00 | 0.12 | 0.12 | 99 | 1013.7 |
| 20260508034417 | 45 | 301 | 0.0 | 0.0 | 0.00 | 0.12 | 0.12 | 99 | 1013.7 |
| 20260508033913 | 46 | 301 | 0.0 | 0.0 | 0.00 | 0.12 | 0.12 | 100 | 1013.7 |
| 20260508033412 | 46 | 301 | 0.0 | 0.0 | 0.00 | 0.12 | 0.12 | 100 | 1013.7 |
| 20260508032909 | 45 | 301 | 0.0 | 0.0 | 0.00 | 0.12 | 0.12 | 100 | 1013.7 |
| 20260508032406 | 45 | 301 | 0.0 | 0.0 | 0.00 | 0.12 | 0.12 | 100 | 1013.7 |
| 20260508031902 | 46 | 301 | 3.0 | 4.0 | 0.00 | 0.12 | 0.12 | 100 | 1013.7 |
| 20260508031400 | 46 | 142 | 0.0 | 0.0 | 0.00 | 0.12 | 0.12 | 100 | 1013.7 |
| 20260508030855 | 46 | 142 | 0.0 | 0.0 | 0.00 | 0.12 | 0.12 | 100 | 1013.7 |
| 20260508030353 | 46 | 142 | 0.0 | 0.0 | 0.00 | 0.12 | 0.12 | 100 | 1013.7 |
| 20260508025850 | 46 | 142 | 0.0 | 2.0 | 0.00 | 0.12 | 0.12 | 99 | 1013.7 |
| 20260508025347 | 47 | 142 | 0.0 | 0.0 | 0.00 | 0.12 | 0.12 | 99 | 1013.7 |
| 20260508024843 | 46 | 142 | 0.0 | 0.0 | 0.00 | 0.12 | 0.12 | 99 | 1013.7 |
| 20260508024340 | 47 | 142 | 0.0 | 0.0 | 0.00 | 0.12 | 0.12 | 99 | 1013.3 |
| 20260508023837 | 47 | 142 | 1.0 | 2.0 | 0.00 | 0.12 | 0.12 | 99 | 1013.3 |
| 20260508023334 | 48 | 142 | 1.0 | 2.0 | 0.00 | 0.12 | 0.12 | 98 | 1013.3 |
| 20260508022830 | 48 | 142 | 0.0 | 1.0 | 0.00 | 0.12 | 0.12 | 98 | 1013.3 |
| 20260508022326 | 49 | 142 | 0.0 | 0.0 | 0.00 | 0.12 | 0.12 | 98 | 1013.3 |
| 20260508021824 | 50 | 142 | 0.0 | 0.0 | 0.00 | 0.12 | 0.12 | 98 | 1013.3 |
| 20260508021319 | 50 | 142 | 0.0 | 0.0 | 0.00 | 0.12 | 0.12 | 98 | 1013.3 |
| 20260508020816 | 51 | 142 | 0.0 | 0.0 | 0.00 | 0.12 | 0.12 | 98 | 1013.3 |
| 20260508020314 | 51 | 142 | 0.0 | 0.0 | 0.00 | 0.12 | 0.12 | 98 | 1013.0 |
| 20260508015810 | 51 | 142 | 0.0 | 0.0 | 0.00 | 0.12 | 0.12 | 98 | 1013.0 |
| 20260508015308 | 51 | 142 | 0.0 | 0.0 | 0.00 | 0.12 | 0.12 | 98 | 1013.0 |
| 20260508014804 | 51 | 142 | 0.0 | 0.0 | 0.00 | 0.12 | 0.12 | 98 | 1013.0 |
| 20260508014302 | 52 | 142 | 0.0 | 0.0 | 0.00 | 0.12 | 0.12 | 97 | 1013.0 |
| 20260508013757 | 52 | 142 | 0.0 | 0.0 | 0.00 | 0.12 | 0.12 | 97 | 1013.0 |
| 20260508013253 | 52 | 142 | 0.0 | 0.0 | 0.00 | 0.12 | 0.12 | 97 | 1012.6 |
| 20260508012751 | 52 | 142 | 0.0 | 0.0 | 0.00 | 0.12 | 0.12 | 97 | 1012.6 |
| 20260508012248 | 52 | 142 | 0.0 | 0.0 | 0.00 | 0.12 | 0.12 | 97 | 1012.6 |
| 20260508011746 | 52 | 142 | 0.0 | 0.0 | 0.00 | 0.12 | 0.12 | 97 | 1012.6 |
| 20260508011243 | 52 | 142 | 0.0 | 0.0 | 0.00 | 0.12 | 0.12 | 97 | 1012.6 |
| 20260508010740 | 52 | 142 | 0.0 | 0.0 | 0.00 | 0.12 | 0.12 | 97 | 1012.6 |
| 20260508010238 | 52 | 142 | 0.0 | 0.0 | 0.00 | 0.12 | 0.12 | 97 | 1012.6 |
| 20260508005735 | 52 | 142 | 0.0 | 0.0 | 0.00 | 0.12 | 0.12 | 97 | 1012.6 |
| 20260508005232 | 52 | 142 | 0.0 | 0.0 | 0.00 | 0.12 | 0.12 | 97 | 1012.3 |
| 20260508004727 | 52 | 142 | 0.0 | 0.0 | 0.00 | 0.12 | 0.12 | 97 | 1012.3 |
| 20260508004224 | 52 | 142 | 0.0 | 0.0 | 0.00 | 0.12 | 0.12 | 97 | 1012.3 |
| 20260508003720 | 52 | 142 | 0.0 | 0.0 | 0.00 | 0.12 | 0.12 | 96 | 1012.3 |
| 20260508003218 | 52 | 142 | 0.0 | 0.0 | 0.00 | 0.12 | 0.12 | 97 | 1012.3 |
| 20260508002714 | 52 | 142 | 0.0 | 0.0 | 0.00 | 0.12 | 0.12 | 97 | 1012.3 |
| 20260508002212 | 52 | 142 | 0.0 | 0.0 | 0.00 | 0.12 | 0.12 | 97 | 1012.6 |
| 20260508001707 | 52 | 142 | 0.0 | 0.0 | 0.00 | 0.12 | 0.12 | 97 | 1012.3 |
| 20260508001203 | 52 | 142 | 0.0 | 0.0 | 0.00 | 0.12 | 0.12 | 97 | 1012.3 |
| 20260508000659 | 52 | 142 | 0.0 | 0.0 | 0.00 | 0.12 | 0.12 | 97 | 1012.3 |
| 20260508000157 | 52 | 142 | 0.0 | 0.0 | 0.00 | 0.12 | 0.12 | 96 | 1012.3 |
| 20260507235653 | 52 | 142 | 0.0 | 0.0 | 0.00 | 0.12 | 0.12 | 96 | 1012.3 |
| 20260507235151 | 52 | 142 | 0.0 | 0.0 | 0.00 | 0.12 | 0.12 | 96 | 1012.3 |
| 20260507234647 | 52 | 142 | 0.0 | 0.0 | 0.00 | 0.12 | 0.12 | 96 | 1012.0 |
| 20260507234144 | 52 | 142 | 0.0 | 0.0 | 0.00 | 0.12 | 0.12 | 96 | 1012.0 |
| 20260507233641 | 52 | 142 | 0.0 | 0.0 | 0.00 | 0.12 | 0.12 | 96 | 1012.0 |
| 20260507233139 | 52 | 142 | 0.0 | 0.0 | 0.00 | 0.12 | 0.12 | 96 | 1012.0 |
| 20260507232635 | 52 | 142 | 0.0 | 0.0 | 0.00 | 0.12 | 0.12 | 95 | 1012.0 |
| 20260507232133 | 52 | 142 | 0.0 | 0.0 | 0.00 | 0.12 | 0.12 | 96 | 1012.0 |
| 20260507231629 | 52 | 142 | 0.0 | 0.0 | 0.00 | 0.12 | 0.12 | 96 | 1011.6 |
| 20260507231126 | 52 | 142 | 0.0 | 2.0 | 0.00 | 0.12 | 0.12 | 96 | 1011.6 |
| 20260507230622 | 52 | 142 | 0.0 | 0.0 | 0.00 | 0.12 | 0.12 | 96 | 1011.6 |
| 20260507230120 | 52 | 142 | 0.0 | 0.0 | 0.00 | 0.12 | 0.12 | 96 | 1011.6 |
| 20260507225614 | 52 | 142 | 0.0 | 0.0 | 0.00 | 0.12 | 0.12 | 96 | 1011.6 |
| 20260507225111 | 52 | 142 | 0.0 | 0.0 | 0.00 | 0.12 | 0.12 | 96 | 1011.6 |
| 20260507224607 | 52 | 142 | 0.0 | 0.0 | 0.00 | 0.12 | 0.12 | 95 | 1011.6 |
| 20260507224104 | 52 | 142 | 0.0 | 0.0 | 0.00 | 0.12 | 0.12 | 95 | 1011.6 |
| 20260507223559 | 52 | 142 | 0.0 | 0.0 | 0.00 | 0.12 | 0.12 | 95 | 1011.6 |
| 20260507223056 | 52 | 142 | 0.0 | 0.0 | 0.00 | 0.12 | 0.12 | 95 | 1011.6 |
| 20260507222554 | 52 | 142 | 0.0 | 0.0 | 0.00 | 0.12 | 0.12 | 96 | 1011.6 |
| 20260507222050 | 52 | 142 | 0.0 | 2.0 | 0.00 | 0.12 | 0.12 | 95 | 1011.6 |
| 20260507221547 | 52 | 142 | 0.0 | 0.0 | 0.00 | 0.12 | 0.12 | 96 | 1011.3 |
| 20260507221044 | 52 | 142 | 0.0 | 0.0 | 0.00 | 0.12 | 0.12 | 96 | 1011.6 |
| 20260507220541 | 52 | 142 | 0.0 | 2.0 | 0.00 | 0.12 | 0.12 | 96 | 1011.3 |
| 20260507220038 | 52 | 142 | 0.0 | 1.0 | 0.00 | 0.12 | 0.12 | 96 | 1011.3 |
| 20260507215534 | 52 | 142 | 0.0 | 1.0 | 0.00 | 0.12 | 0.12 | 96 | 1011.3 |
| 20260507215032 | 52 | 142 | 0.0 | 2.0 | 0.00 | 0.12 | 0.12 | 96 | 1011.3 |
| 20260507214530 | 52 | 142 | 1.0 | 2.0 | 0.00 | 0.12 | 0.12 | 95 | 1011.3 |
| 20260507214025 | 52 | 142 | 0.0 | 2.0 | 0.00 | 0.12 | 0.12 | 94 | 1011.3 |
| 20260507213521 | 52 | 142 | 0.0 | 1.0 | 0.00 | 0.12 | 0.12 | 94 | 1011.6 |
| 20260507213019 | 52 | 142 | 1.0 | 2.0 | 0.00 | 0.12 | 0.12 | 94 | 1011.3 |
| 20260507212514 | 52 | 142 | 0.0 | 2.0 | 0.00 | 0.12 | 0.12 | 94 | 1011.3 |
| 20260507212011 | 52 | 142 | 1.0 | 4.0 | 0.00 | 0.12 | 0.12 | 94 | 1011.3 |
| 20260507211508 | 52 | 142 | 2.0 | 3.0 | 0.00 | 0.12 | 0.12 | 93 | 1011.3 |
| 20260507211004 | 52 | 142 | 3.0 | 4.0 | 0.00 | 0.12 | 0.12 | 94 | 1011.3 |
| 20260507210501 | 52 | 108 | 1.0 | 4.0 | 0.00 | 0.12 | 0.12 | 92 | 1010.9 |
| 20260507205958 | 52 | 108 | 3.0 | 4.0 | 0.00 | 0.12 | 0.12 | 93 | 1010.9 |
| 20260507205455 | 53 | 127 | 6.0 | 10.0 | 0.00 | 0.12 | 0.12 | 93 | 1011.3 |
| 20260507204951 | 54 | 195 | 0.0 | 0.0 | 0.00 | 0.12 | 0.12 | 93 | 1010.9 |
| 20260507204448 | 54 | 195 | 0.0 | 0.0 | 0.00 | 0.12 | 0.12 | 91 | 1011.3 |
| 20260507203945 | 54 | 195 | 0.0 | 0.0 | 0.00 | 0.12 | 0.12 | 91 | 1011.3 |
| 20260507203443 | 54 | 195 | 0.0 | 0.0 | 0.00 | 0.12 | 0.12 | 92 | 1011.3 |
| 20260507202939 | 54 | 195 | 0.0 | 0.0 | 0.00 | 0.12 | 0.12 | 93 | 1011.3 |
| 20260507202436 | 54 | 195 | 0.0 | 0.0 | 0.00 | 0.12 | 0.12 | 92 | 1011.3 |
| 20260507201932 | 54 | 195 | 0.0 | 1.0 | 0.00 | 0.12 | 0.12 | 92 | 1011.3 |
| 20260507201432 | 54 | 195 | 0.0 | 2.0 | 0.00 | 0.12 | 0.12 | 93 | 1011.3 |
| 20260507200929 | 53 | 195 | 1.0 | 2.0 | 0.00 | 0.12 | 0.12 | 94 | 1011.3 |
| 20260507200425 | 53 | 195 | 0.0 | 2.0 | 0.00 | 0.12 | 0.12 | 94 | 1011.6 |
| 20260507195921 | 53 | 195 | 0.0 | 2.0 | 0.00 | 0.12 | 0.12 | 94 | 1011.6 |
| 20260507195419 | 53 | 195 | 0.0 | 2.0 | 0.00 | 0.12 | 0.12 | 96 | 1011.6 |
| 20260507194916 | 53 | 195 | 0.0 | 2.0 | 0.00 | 0.12 | 0.12 | 96 | 1011.6 |
| 20260507194412 | 53 | 195 | 0.0 | 3.0 | 0.00 | 0.12 | 0.12 | 95 | 1012.0 |
| 20260507193908 | 53 | 195 | 1.0 | 2.0 | 0.00 | 0.11 | 0.11 | 96 | 1011.6 |
| 20260507193406 | 53 | 195 | 0.0 | 0.0 | 0.00 | 0.10 | 0.10 | 96 | 1011.6 |
| 20260507192902 | 53 | 195 | 2.0 | 4.0 | 0.00 | 0.10 | 0.10 | 96 | 1012.0 |
| 20260507192358 | 53 | 195 | 1.0 | 2.0 | 0.00 | 0.10 | 0.10 | 96 | 1012.0 |
| 20260507191855 | 53 | 195 | 0.0 | 2.0 | 0.00 | 0.09 | 0.09 | 96 | 1011.6 |
| 20260507191351 | 53 | 224 | 0.0 | 4.0 | 0.00 | 0.09 | 0.09 | 96 | 1012.0 |
| 20260507190848 | 53 | 137 | 0.0 | 2.0 | 0.00 | 0.09 | 0.09 | 96 | 1012.0 |
| 20260507190346 | 53 | 137 | 0.0 | 2.0 | 0.00 | 0.09 | 0.09 | 96 | 1012.3 |
| 20260507185845 | 53 | 137 | 0.0 | 3.0 | 0.00 | 0.09 | 0.09 | 95 | 1012.0 |
| 20260507185342 | 53 | 166 | 2.0 | 3.0 | 0.00 | 0.09 | 0.09 | 95 | 1012.3 |
| 20260507184838 | 53 | 167 | 0.0 | 0.0 | 0.00 | 0.09 | 0.09 | 95 | 1012.3 |
| 20260507184336 | 53 | 167 | 1.0 | 2.0 | 0.00 | 0.09 | 0.09 | 95 | 1012.3 |
| 20260507183833 | 53 | 167 | 0.0 | 2.0 | 0.00 | 0.09 | 0.09 | 96 | 1012.0 |
| 20260507183330 | 53 | 220 | 1.0 | 4.0 | 0.00 | 0.08 | 0.08 | 96 | 1012.3 |
| 20260507182828 | 53 | 131 | 0.0 | 3.0 | 0.00 | 0.07 | 0.07 | 96 | 1012.3 |
| 20260507182323 | 53 | 131 | 3.0 | 4.0 | 0.00 | 0.07 | 0.07 | 96 | 1012.0 |
| 20260507181820 | 53 | 131 | 3.0 | 5.0 | 0.00 | 0.07 | 0.07 | 96 | 1012.3 |
| 20260507181316 | 53 | 127 | 4.0 | 6.0 | 0.00 | 0.07 | 0.07 | 96 | 1012.0 |
| 20260507180813 | 53 | 114 | 2.0 | 4.0 | 0.00 | 0.07 | 0.07 | 96 | 1012.0 |
| 20260507180309 | 54 | 114 | 4.0 | 6.0 | 0.00 | 0.07 | 0.07 | 95 | 1012.0 |
| 20260507175805 | 54 | 114 | 0.0 | 2.0 | 0.00 | 0.06 | 0.06 | 94 | 1012.3 |
| 20260507175306 | 54 | 114 | 0.0 | 2.0 | 0.00 | 0.06 | 0.06 | 94 | 1012.0 |
| 20260507174759 | 54 | 122 | 3.0 | 5.0 | 0.00 | 0.06 | 0.06 | 94 | 1012.0 |
| 20260507174257 | 54 | 159 | 0.0 | 2.0 | 0.00 | 0.06 | 0.06 | 95 | 1012.0 |